createdAt,value
2022-12-25T00:00:45.591Z,995.84
2022-12-25T00:01:45.487Z,995.84
2022-12-25T00:02:45.617Z,995.80
2022-12-25T00:03:45.534Z,995.78
2022-12-25T00:04:45.426Z,995.82
2022-12-25T00:05:45.404Z,995.83
2022-12-25T00:06:45.369Z,995.87
2022-12-25T00:07:45.337Z,995.84
2022-12-25T00:08:45.321Z,995.89
2022-12-25T00:09:45.292Z,995.90
2022-12-25T00:10:45.821Z,995.88
2022-12-25T00:11:45.240Z,995.87
2022-12-25T00:12:45.216Z,995.85
2022-12-25T00:13:45.196Z,995.90
2022-12-25T00:14:45.177Z,995.88
2022-12-25T00:15:45.196Z,995.89
2022-12-25T00:16:45.255Z,995.88
2022-12-25T00:17:45.093Z,995.83
2022-12-25T00:18:45.087Z,995.79
2022-12-25T00:19:45.051Z,995.79
2022-12-25T00:20:45.024Z,995.73
2022-12-25T00:21:44.997Z,995.80
2022-12-25T00:22:44.979Z,995.78
2022-12-25T00:23:44.953Z,995.77
2022-12-25T00:24:44.939Z,995.75
2022-12-25T00:25:44.903Z,995.74
2022-12-25T00:26:44.890Z,995.72
2022-12-25T00:27:44.866Z,995.67
2022-12-25T00:28:44.842Z,995.59
2022-12-25T00:29:44.804Z,995.58
2022-12-25T00:30:44.796Z,995.62
2022-12-25T00:31:44.807Z,995.63
2022-12-25T00:32:44.747Z,995.57
2022-12-25T00:33:44.711Z,995.58
2022-12-25T00:34:44.713Z,995.56
2022-12-25T00:35:44.658Z,995.50
2022-12-25T00:36:44.641Z,995.51
2022-12-25T00:37:44.610Z,995.53
2022-12-25T00:38:44.609Z,995.54
2022-12-25T00:39:44.567Z,995.53
2022-12-25T00:40:44.543Z,995.52
2022-12-25T00:41:44.537Z,995.52
2022-12-25T00:42:44.497Z,995.53
2022-12-25T00:43:44.463Z,995.50
2022-12-25T00:44:44.450Z,995.51
2022-12-25T00:45:44.463Z,995.48
2022-12-25T00:46:44.422Z,995.47
2022-12-25T00:47:44.381Z,995.39
2022-12-25T00:48:44.350Z,995.40
2022-12-25T00:49:44.322Z,995.40
2022-12-25T00:50:44.320Z,995.37
2022-12-25T00:51:44.276Z,995.43
2022-12-25T00:52:44.258Z,995.41
2022-12-25T00:53:44.229Z,995.44
2022-12-25T00:54:44.216Z,995.43
2022-12-25T00:55:44.180Z,995.48
2022-12-25T00:56:44.158Z,995.49
2022-12-25T00:57:44.142Z,995.55
2022-12-25T00:58:44.119Z,995.56
2022-12-25T00:59:44.091Z,995.60
2022-12-25T01:00:44.099Z,995.62
2022-12-25T01:01:44.265Z,995.60
2022-12-25T01:02:44.166Z,995.61
2022-12-25T01:03:43.990Z,995.62
2022-12-25T01:04:43.985Z,995.57
2022-12-25T01:05:43.943Z,995.62
2022-12-25T01:06:43.921Z,995.59
2022-12-25T01:07:43.899Z,995.57
2022-12-25T01:08:43.868Z,995.61
2022-12-25T01:09:43.850Z,995.70
2022-12-25T01:10:43.831Z,995.72
2022-12-25T01:11:43.820Z,995.77
2022-12-25T01:12:43.782Z,995.76
2022-12-25T01:13:43.771Z,995.76
2022-12-25T01:14:43.730Z,995.74
2022-12-25T01:15:43.711Z,995.78
2022-12-25T01:16:43.795Z,995.80
2022-12-25T01:17:43.706Z,995.76
2022-12-25T01:18:43.648Z,995.77
2022-12-25T01:19:43.616Z,995.80
2022-12-25T01:20:43.606Z,995.80
2022-12-25T01:21:43.581Z,995.84
2022-12-25T01:22:43.574Z,995.81
2022-12-25T01:23:43.517Z,995.85
2022-12-25T01:24:43.495Z,995.85
2022-12-25T01:25:43.547Z,995.89
2022-12-25T01:26:43.444Z,995.90
2022-12-25T01:27:43.612Z,995.95
2022-12-25T01:28:43.462Z,995.94
2022-12-25T01:29:43.398Z,995.95
2022-12-25T01:30:43.399Z,995.93
2022-12-25T01:31:43.477Z,995.93
2022-12-25T01:32:43.313Z,995.95
2022-12-25T01:33:43.295Z,995.95
2022-12-25T01:34:43.294Z,995.96
2022-12-25T01:35:43.280Z,995.96
2022-12-25T01:36:43.207Z,995.96
2022-12-25T01:37:43.187Z,995.95
2022-12-25T01:38:43.165Z,996.00
2022-12-25T01:39:43.156Z,995.99
2022-12-25T01:40:43.115Z,996.01
2022-12-25T01:41:43.093Z,995.97
2022-12-25T01:42:43.068Z,995.99
2022-12-25T01:43:43.043Z,995.95
2022-12-25T01:44:43.042Z,995.88
2022-12-25T01:45:43.089Z,995.84
2022-12-25T01:46:42.975Z,995.89
2022-12-25T01:47:42.977Z,995.92
2022-12-25T01:48:42.927Z,995.87
2022-12-25T01:49:42.904Z,995.89
2022-12-25T01:50:42.877Z,995.90
2022-12-25T01:51:42.860Z,995.92
2022-12-25T01:52:42.835Z,995.95
2022-12-25T01:53:42.823Z,996.00
2022-12-25T01:54:42.786Z,995.95
2022-12-25T01:55:42.768Z,995.94
2022-12-25T01:56:42.745Z,995.96
2022-12-25T01:57:42.739Z,995.98
2022-12-25T01:58:42.690Z,995.92
2022-12-25T01:59:42.672Z,995.94
2022-12-25T02:00:42.710Z,995.91
2022-12-25T02:01:42.721Z,995.88
2022-12-25T02:02:42.754Z,995.85
2022-12-25T02:03:42.572Z,995.78
2022-12-25T02:04:42.556Z,995.78
2022-12-25T02:05:42.527Z,995.74
2022-12-25T02:06:42.501Z,995.78
2022-12-25T02:07:42.487Z,995.81
2022-12-25T02:08:42.459Z,995.82
2022-12-25T02:09:42.441Z,995.85
2022-12-25T02:10:42.419Z,995.87
2022-12-25T02:11:42.387Z,995.86
2022-12-25T02:12:42.361Z,995.87
2022-12-25T02:13:42.340Z,995.89
2022-12-25T02:14:42.328Z,995.86
2022-12-25T02:15:42.291Z,995.85
2022-12-25T02:16:58.093Z,995.82
2022-12-25T02:17:42.249Z,995.80
2022-12-25T02:18:42.227Z,995.81
2022-12-25T02:19:42.198Z,995.79
2022-12-25T02:20:42.167Z,995.76
2022-12-25T02:21:42.150Z,995.74
2022-12-25T02:22:42.138Z,995.76
2022-12-25T02:23:42.126Z,995.72
2022-12-25T02:24:42.091Z,995.69
2022-12-25T02:25:42.083Z,995.69
2022-12-25T02:26:42.027Z,995.62
2022-12-25T02:27:42.003Z,995.63
2022-12-25T02:28:45.605Z,995.58
2022-12-25T02:29:41.969Z,995.50
2022-12-25T02:30:41.954Z,995.48
2022-12-25T02:31:41.946Z,995.49
2022-12-25T02:32:41.885Z,995.50
2022-12-25T02:33:41.881Z,995.45
2022-12-25T02:34:41.834Z,995.45
2022-12-25T02:35:41.811Z,995.40
2022-12-25T02:36:41.796Z,995.37
2022-12-25T02:37:41.765Z,995.37
2022-12-25T02:38:41.745Z,995.40
2022-12-25T02:39:41.719Z,995.43
2022-12-25T02:40:41.686Z,995.45
2022-12-25T02:41:41.672Z,995.38
2022-12-25T02:42:41.654Z,995.42
2022-12-25T02:43:41.640Z,995.38
2022-12-25T02:44:41.601Z,995.32
2022-12-25T02:45:41.597Z,995.30
2022-12-25T02:46:41.569Z,995.33
2022-12-25T02:47:41.526Z,995.38
2022-12-25T02:48:41.502Z,995.32
2022-12-25T02:49:41.477Z,995.33
2022-12-25T02:50:41.470Z,995.28
2022-12-25T02:51:41.440Z,995.29
2022-12-25T02:52:41.421Z,995.28
2022-12-25T02:53:41.400Z,995.28
2022-12-25T02:54:41.372Z,995.28
2022-12-25T02:55:41.337Z,995.31
2022-12-25T02:56:41.305Z,995.34
2022-12-25T02:57:41.289Z,995.34
2022-12-25T02:58:41.270Z,995.38
2022-12-25T02:59:41.236Z,995.36
2022-12-25T03:00:41.219Z,995.32
2022-12-25T03:01:41.363Z,995.32
2022-12-25T03:02:41.158Z,995.35
2022-12-25T03:03:41.169Z,995.32
2022-12-25T03:04:41.135Z,995.39
2022-12-25T03:05:41.114Z,995.35
2022-12-25T03:06:41.061Z,995.34
2022-12-25T03:07:41.048Z,995.34
2022-12-25T03:08:41.015Z,995.31
2022-12-25T03:09:40.995Z,995.28
2022-12-25T03:10:40.969Z,995.28
2022-12-25T03:11:40.944Z,995.28
2022-12-25T03:12:40.929Z,995.27
2022-12-25T03:13:40.909Z,995.27
2022-12-25T03:14:40.882Z,995.23
2022-12-25T03:15:40.864Z,995.21
2022-12-25T03:16:40.887Z,995.14
2022-12-25T03:17:40.801Z,995.15
2022-12-25T03:18:40.793Z,995.18
2022-12-25T03:19:40.747Z,995.18
2022-12-25T03:20:40.737Z,995.20
2022-12-25T03:21:40.702Z,995.21
2022-12-25T03:22:40.672Z,995.26
2022-12-25T03:23:40.658Z,995.24
2022-12-25T03:24:40.631Z,995.22
2022-12-25T03:25:40.618Z,995.24
2022-12-25T03:26:40.575Z,995.24
2022-12-25T03:27:40.554Z,995.21
2022-12-25T03:28:40.535Z,995.21
2022-12-25T03:29:40.507Z,995.23
2022-12-25T03:30:40.519Z,995.26
2022-12-25T03:31:40.454Z,995.24
2022-12-25T03:32:40.423Z,995.22
2022-12-25T03:33:45.394Z,995.21
2022-12-25T03:34:40.393Z,995.20
2022-12-25T03:35:40.362Z,995.19
2022-12-25T03:36:40.331Z,995.20
2022-12-25T03:37:40.308Z,995.13
2022-12-25T03:38:40.293Z,995.16
2022-12-25T03:39:40.267Z,995.17
2022-12-25T03:40:40.239Z,995.19
2022-12-25T03:41:40.222Z,995.15
2022-12-25T03:42:40.177Z,995.17
2022-12-25T03:43:40.179Z,995.17
2022-12-25T03:44:40.133Z,995.15
2022-12-25T03:45:40.117Z,995.13
2022-12-25T03:46:40.194Z,995.15
2022-12-25T03:47:40.056Z,995.14
2022-12-25T03:48:40.057Z,995.13
2022-12-25T03:49:40.004Z,995.21
2022-12-25T03:50:40.005Z,995.21
2022-12-25T03:51:39.959Z,995.23
2022-12-25T03:52:39.926Z,995.24
2022-12-25T03:53:39.917Z,995.24
2022-12-25T03:54:39.891Z,995.20
2022-12-25T03:55:39.863Z,995.24
2022-12-25T03:56:39.843Z,995.28
2022-12-25T03:57:39.841Z,995.20
2022-12-25T03:58:39.788Z,995.20
2022-12-25T03:59:39.805Z,995.19
2022-12-25T04:00:39.727Z,995.21
2022-12-25T04:01:39.832Z,995.20
2022-12-25T04:02:39.925Z,995.19
2022-12-25T04:03:39.723Z,995.14
2022-12-25T04:04:39.656Z,995.13
2022-12-25T04:05:39.621Z,995.13
2022-12-25T04:06:39.600Z,995.06
2022-12-25T04:07:39.562Z,995.04
2022-12-25T04:08:39.542Z,995.06
2022-12-25T04:09:39.506Z,995.06
2022-12-25T04:10:39.477Z,995.07
2022-12-25T04:11:39.470Z,995.04
2022-12-25T04:12:39.434Z,995.04
2022-12-25T04:13:39.408Z,995.04
2022-12-25T04:14:39.400Z,995.01
2022-12-25T04:15:39.363Z,995.03
2022-12-25T04:16:39.340Z,995.05
2022-12-25T04:17:39.309Z,995.03
2022-12-25T04:18:39.280Z,995.05
2022-12-25T04:19:39.262Z,995.08
2022-12-25T04:20:39.226Z,995.11
2022-12-25T04:21:39.212Z,995.09
2022-12-25T04:22:39.177Z,995.07
2022-12-25T04:23:39.158Z,995.03
2022-12-25T04:24:39.136Z,994.99
2022-12-25T04:25:39.118Z,994.96
2022-12-25T04:26:39.086Z,994.98
2022-12-25T04:27:39.059Z,995.01
2022-12-25T04:28:39.025Z,994.97
2022-12-25T04:29:39.015Z,994.95
2022-12-25T04:30:38.990Z,994.92
2022-12-25T04:31:39.090Z,994.88
2022-12-25T04:32:38.958Z,994.85
2022-12-25T04:33:38.907Z,994.79
2022-12-25T04:34:38.904Z,994.76
2022-12-25T04:35:38.867Z,994.71
2022-12-25T04:36:38.834Z,994.70
2022-12-25T04:37:38.810Z,994.68
2022-12-25T04:38:38.789Z,994.68
2022-12-25T04:39:38.776Z,994.67
2022-12-25T04:40:38.731Z,994.73
2022-12-25T04:41:38.715Z,994.74
2022-12-25T04:42:38.681Z,994.80
2022-12-25T04:43:38.669Z,994.78
2022-12-25T04:44:38.633Z,994.84
2022-12-25T04:45:38.611Z,994.82
2022-12-25T04:46:38.647Z,994.86
2022-12-25T04:47:38.565Z,994.83
2022-12-25T04:48:38.531Z,994.83
2022-12-25T04:49:38.515Z,994.85
2022-12-25T04:50:38.493Z,994.85
2022-12-25T04:51:38.500Z,994.89
2022-12-25T04:52:38.469Z,994.90
2022-12-25T04:53:38.412Z,994.92
2022-12-25T04:54:38.385Z,994.93
2022-12-25T04:55:38.365Z,994.93
2022-12-25T04:56:43.338Z,994.92
2022-12-25T04:57:38.337Z,994.89
2022-12-25T04:58:38.285Z,994.88
2022-12-25T04:59:38.266Z,994.93
2022-12-25T05:00:38.240Z,994.90
2022-12-25T05:01:38.382Z,994.96
2022-12-25T05:02:38.451Z,994.93
2022-12-25T05:03:38.220Z,994.93
2022-12-25T05:04:38.149Z,994.92
2022-12-25T05:05:38.121Z,994.93
2022-12-25T05:06:38.096Z,994.95
2022-12-25T05:07:38.073Z,994.97
2022-12-25T05:08:38.045Z,995.01
2022-12-25T05:09:38.020Z,994.95
2022-12-25T05:10:37.993Z,995.00
2022-12-25T05:11:37.986Z,995.00
2022-12-25T05:12:37.950Z,995.01
2022-12-25T05:13:37.948Z,994.97
2022-12-25T05:14:37.902Z,994.97
2022-12-25T05:15:37.915Z,994.91
2022-12-25T05:16:37.854Z,994.89
2022-12-25T05:17:37.837Z,994.86
2022-12-25T05:18:37.807Z,994.79
2022-12-25T05:19:37.787Z,994.81
2022-12-25T05:20:40.206Z,994.80
2022-12-25T05:21:37.730Z,994.77
2022-12-25T05:22:37.713Z,994.74
2022-12-25T05:23:37.681Z,994.73
2022-12-25T05:24:37.681Z,994.75
2022-12-25T05:25:37.629Z,994.80
2022-12-25T05:26:37.612Z,994.79
2022-12-25T05:27:37.583Z,994.77
2022-12-25T05:28:37.579Z,994.79
2022-12-25T05:29:37.537Z,994.79
2022-12-25T05:30:37.520Z,994.85
2022-12-25T05:31:37.589Z,994.86
2022-12-25T05:32:37.466Z,994.83
2022-12-25T05:33:37.438Z,994.84
2022-12-25T05:34:37.430Z,994.79
2022-12-25T05:35:37.394Z,994.81
2022-12-25T05:36:37.364Z,994.79
2022-12-25T05:37:37.335Z,994.82
2022-12-25T05:38:37.341Z,994.83
2022-12-25T05:39:37.298Z,994.83
2022-12-25T05:40:37.269Z,994.84
2022-12-25T05:41:37.251Z,994.81
2022-12-25T05:42:37.221Z,994.73
2022-12-25T05:43:37.191Z,994.75
2022-12-25T05:44:37.184Z,994.69
2022-12-25T05:45:37.146Z,994.71
2022-12-25T05:46:37.152Z,994.72
2022-12-25T05:47:37.096Z,994.67
2022-12-25T05:48:37.088Z,994.67
2022-12-25T05:49:37.052Z,994.65
2022-12-25T05:50:37.027Z,994.66
2022-12-25T05:51:37.023Z,994.64
2022-12-25T05:52:37.017Z,994.61
2022-12-25T05:53:36.951Z,994.65
2022-12-25T05:54:36.964Z,994.64
2022-12-25T05:55:36.903Z,994.59
2022-12-25T05:56:36.899Z,994.62
2022-12-25T05:57:36.861Z,994.62
2022-12-25T05:58:36.849Z,994.62
2022-12-25T05:59:36.814Z,994.61
2022-12-25T06:00:36.808Z,994.63
2022-12-25T06:01:37.005Z,994.64
2022-12-25T06:02:37.026Z,994.64
2022-12-25T06:03:36.766Z,994.66
2022-12-25T06:04:36.697Z,994.68
2022-12-25T06:05:36.658Z,994.73
2022-12-25T06:06:36.649Z,994.72
2022-12-25T06:07:36.618Z,994.69
2022-12-25T06:08:36.604Z,994.71
2022-12-25T06:09:36.574Z,994.68
2022-12-25T06:10:36.570Z,994.70
2022-12-25T06:11:36.544Z,994.70
2022-12-25T06:12:36.520Z,994.70
2022-12-25T06:13:36.466Z,994.75
2022-12-25T06:14:36.456Z,994.72
2022-12-25T06:15:36.418Z,994.73
2022-12-25T06:16:38.358Z,994.79
2022-12-25T06:17:36.373Z,994.75
2022-12-25T06:18:36.354Z,994.73
2022-12-25T06:19:36.319Z,994.78
2022-12-25T06:20:36.297Z,994.71
2022-12-25T06:21:36.272Z,994.70
2022-12-25T06:22:36.249Z,994.73
2022-12-25T06:23:36.277Z,994.72
2022-12-25T06:24:36.198Z,994.70
2022-12-25T06:25:36.167Z,994.75
2022-12-25T06:26:36.288Z,994.71
2022-12-25T06:27:36.132Z,994.74
2022-12-25T06:28:36.108Z,994.68
2022-12-25T06:29:36.094Z,994.65
2022-12-25T06:30:36.062Z,994.64
2022-12-25T06:31:36.043Z,994.65
2022-12-25T06:32:36.010Z,994.66
2022-12-25T06:33:35.988Z,994.64
2022-12-25T06:34:35.951Z,994.62
2022-12-25T06:35:35.940Z,994.59
2022-12-25T06:36:35.906Z,994.59
2022-12-25T06:37:35.872Z,994.57
2022-12-25T06:38:35.880Z,994.60
2022-12-25T06:39:35.829Z,994.60
2022-12-25T06:40:35.814Z,994.60
2022-12-25T06:41:35.782Z,994.64
2022-12-25T06:42:35.765Z,994.59
2022-12-25T06:43:35.739Z,994.57
2022-12-25T06:44:35.737Z,994.61
2022-12-25T06:45:35.723Z,994.55
2022-12-25T06:46:35.694Z,994.56
2022-12-25T06:47:35.629Z,994.53
2022-12-25T06:48:35.631Z,994.53
2022-12-25T06:49:35.606Z,994.51
2022-12-25T06:50:35.588Z,994.48
2022-12-25T06:51:35.537Z,994.48
2022-12-25T06:52:35.575Z,994.47
2022-12-25T06:53:40.211Z,994.48
2022-12-25T06:54:35.467Z,994.49
2022-12-25T06:55:35.433Z,994.50
2022-12-25T06:56:35.424Z,994.50
2022-12-25T06:57:35.393Z,994.54
2022-12-25T06:58:35.374Z,994.51
2022-12-25T06:59:35.343Z,994.51
2022-12-25T07:00:35.320Z,994.50
2022-12-25T07:01:35.388Z,994.52
2022-12-25T07:02:35.429Z,994.52
2022-12-25T07:03:35.251Z,994.54
2022-12-25T07:04:35.218Z,994.48
2022-12-25T07:05:35.197Z,994.46
2022-12-25T07:06:35.181Z,994.43
2022-12-25T07:07:35.150Z,994.46
2022-12-25T07:08:35.189Z,994.50
2022-12-25T07:09:35.101Z,994.50
2022-12-25T07:10:35.080Z,994.47
2022-12-25T07:11:35.049Z,994.43
2022-12-25T07:12:35.031Z,994.39
2022-12-25T07:13:35.016Z,994.43
2022-12-25T07:14:34.992Z,994.47
2022-12-25T07:15:34.954Z,994.54
2022-12-25T07:16:34.992Z,994.56
2022-12-25T07:17:34.914Z,994.57
2022-12-25T07:18:34.880Z,994.55
2022-12-25T07:19:39.669Z,994.56
2022-12-25T07:20:34.867Z,994.47
2022-12-25T07:21:34.842Z,994.46
2022-12-25T07:22:34.809Z,994.47
2022-12-25T07:23:34.755Z,994.43
2022-12-25T07:24:34.740Z,994.43
2022-12-25T07:25:37.375Z,994.46
2022-12-25T07:26:34.694Z,994.42
2022-12-25T07:27:34.672Z,994.43
2022-12-25T07:28:34.646Z,994.40
2022-12-25T07:29:34.616Z,994.39
2022-12-25T07:30:34.601Z,994.42
2022-12-25T07:31:34.630Z,994.39
2022-12-25T07:32:34.547Z,994.37
2022-12-25T07:33:34.523Z,994.38
2022-12-25T07:34:34.521Z,994.37
2022-12-25T07:35:34.468Z,994.38
2022-12-25T07:36:34.459Z,994.37
2022-12-25T07:37:34.438Z,994.44
2022-12-25T07:38:34.394Z,994.42
2022-12-25T07:39:34.367Z,994.40
2022-12-25T07:40:34.355Z,994.34
2022-12-25T07:41:34.322Z,994.33
2022-12-25T07:42:34.360Z,994.33
2022-12-25T07:43:34.269Z,994.30
2022-12-25T07:44:34.258Z,994.31
2022-12-25T07:45:34.304Z,994.23
2022-12-25T07:46:34.210Z,994.20
2022-12-25T07:47:34.172Z,994.21
2022-12-25T07:48:34.170Z,994.21
2022-12-25T07:49:34.137Z,994.16
2022-12-25T07:50:34.119Z,994.09
2022-12-25T07:51:34.070Z,994.13
2022-12-25T07:52:39.467Z,994.16
2022-12-25T07:53:34.024Z,994.20
2022-12-25T07:54:34.016Z,994.16
2022-12-25T07:55:34.010Z,994.11
2022-12-25T07:56:33.967Z,994.10
2022-12-25T07:57:33.981Z,994.12
2022-12-25T07:58:33.920Z,994.06
2022-12-25T07:59:33.879Z,994.05
2022-12-25T08:00:33.915Z,994.05
2022-12-25T08:01:34.109Z,994.16
2022-12-25T08:02:34.103Z,994.21
2022-12-25T08:03:34.087Z,994.27
2022-12-25T08:04:33.765Z,994.24
2022-12-25T08:05:33.744Z,994.28
2022-12-25T08:06:33.713Z,994.29
2022-12-25T08:07:33.732Z,994.27
2022-12-25T08:08:33.668Z,994.26
2022-12-25T08:09:33.636Z,994.27
2022-12-25T08:10:33.618Z,994.27
2022-12-25T08:11:33.596Z,994.26
2022-12-25T08:12:33.573Z,994.28
2022-12-25T08:13:33.553Z,994.29
2022-12-25T08:14:33.522Z,994.28
2022-12-25T08:15:33.507Z,994.27
2022-12-25T08:16:33.509Z,994.31
2022-12-25T08:17:33.462Z,994.35
2022-12-25T08:18:33.431Z,994.32
2022-12-25T08:19:33.401Z,994.27
2022-12-25T08:20:33.382Z,994.23
2022-12-25T08:21:33.356Z,994.16
2022-12-25T08:22:33.334Z,994.07
2022-12-25T08:23:33.303Z,994.00
2022-12-25T08:24:33.296Z,993.96
2022-12-25T08:25:33.260Z,993.98
2022-12-25T08:26:33.264Z,994.00
2022-12-25T08:27:33.207Z,994.04
2022-12-25T08:28:33.193Z,994.00
2022-12-25T08:29:33.183Z,994.01
2022-12-25T08:30:33.141Z,993.97
2022-12-25T08:31:33.148Z,993.97
2022-12-25T08:32:33.094Z,994.00
2022-12-25T08:33:33.064Z,994.03
2022-12-25T08:34:33.071Z,994.07
2022-12-25T08:35:33.017Z,994.13
2022-12-25T08:36:33.005Z,994.09
2022-12-25T08:37:33.003Z,994.12
2022-12-25T08:38:32.962Z,994.10
2022-12-25T08:39:32.920Z,994.07
2022-12-25T08:40:32.903Z,994.09
2022-12-25T08:41:32.870Z,994.16
2022-12-25T08:42:32.851Z,994.16
2022-12-25T08:43:32.844Z,994.12
2022-12-25T08:44:32.810Z,994.07
2022-12-25T08:45:35.229Z,994.02
2022-12-25T08:46:32.843Z,993.99
2022-12-25T08:47:32.730Z,994.06
2022-12-25T08:48:32.711Z,994.01
2022-12-25T08:49:32.687Z,993.91
2022-12-25T08:50:32.670Z,993.84
2022-12-25T08:51:32.645Z,993.77
2022-12-25T08:52:32.756Z,993.74
2022-12-25T08:53:32.602Z,993.66
2022-12-25T08:54:32.572Z,993.59
2022-12-25T08:55:32.544Z,993.60
2022-12-25T08:56:32.547Z,993.54
2022-12-25T08:57:32.516Z,993.56
2022-12-25T08:58:32.488Z,993.47
2022-12-25T08:59:32.443Z,993.37
2022-12-25T09:00:32.432Z,993.30
2022-12-25T09:01:32.455Z,993.30
2022-12-25T09:02:32.824Z,993.31
2022-12-25T09:03:32.488Z,993.31
2022-12-25T09:04:32.331Z,993.32
2022-12-25T09:05:32.307Z,993.33
2022-12-25T09:06:32.300Z,993.39
2022-12-25T09:07:32.259Z,993.44
2022-12-25T09:08:32.251Z,993.54
2022-12-25T09:09:32.225Z,993.61
2022-12-25T09:10:32.199Z,993.66
2022-12-25T09:11:32.173Z,993.73
2022-12-25T09:12:32.149Z,993.74
2022-12-25T09:13:32.133Z,993.82
2022-12-25T09:14:32.101Z,993.86
2022-12-25T09:15:32.143Z,993.91
2022-12-25T09:16:32.111Z,993.94
2022-12-25T09:17:32.035Z,993.97
2022-12-25T09:18:32.012Z,994.01
2022-12-25T09:19:31.984Z,994.00
2022-12-25T09:20:31.979Z,994.05
2022-12-25T09:21:31.937Z,994.06
2022-12-25T09:22:31.918Z,994.13
2022-12-25T09:23:31.897Z,994.16
2022-12-25T09:24:31.893Z,994.18
2022-12-25T09:25:31.841Z,994.14
2022-12-25T09:26:31.828Z,994.15
2022-12-25T09:27:31.791Z,994.19
2022-12-25T09:28:31.776Z,994.23
2022-12-25T09:29:31.753Z,994.18
2022-12-25T09:30:31.762Z,994.23
2022-12-25T09:31:31.792Z,994.27
2022-12-25T09:32:31.698Z,994.26
2022-12-25T09:33:31.671Z,994.28
2022-12-25T09:34:31.641Z,994.27
2022-12-25T09:35:31.618Z,994.30
2022-12-25T09:36:31.593Z,994.30
2022-12-25T09:37:31.570Z,994.32
2022-12-25T09:38:31.552Z,994.36
2022-12-25T09:39:31.531Z,994.33
2022-12-25T09:40:31.499Z,994.30
2022-12-25T09:41:31.489Z,994.28
2022-12-25T09:42:31.469Z,994.26
2022-12-25T09:43:31.436Z,994.29
2022-12-25T09:44:31.430Z,994.25
2022-12-25T09:45:31.388Z,994.25
2022-12-25T09:46:37.103Z,994.22
2022-12-25T09:47:31.343Z,994.18
2022-12-25T09:48:31.312Z,994.16
2022-12-25T09:49:31.301Z,994.17
2022-12-25T09:50:31.268Z,994.19
2022-12-25T09:51:31.276Z,994.20
2022-12-25T09:52:31.231Z,994.24
2022-12-25T09:53:31.205Z,994.15
2022-12-25T09:54:31.182Z,994.22
2022-12-25T09:55:31.162Z,994.28
2022-12-25T09:56:31.135Z,994.25
2022-12-25T09:57:31.117Z,994.26
2022-12-25T09:58:31.093Z,994.22
2022-12-25T09:59:31.072Z,994.22
2022-12-25T10:00:31.047Z,994.16
2022-12-25T10:01:31.126Z,994.17
2022-12-25T10:02:31.201Z,994.09
2022-12-25T10:03:31.021Z,994.05
2022-12-25T10:04:33.675Z,993.94
2022-12-25T10:05:30.936Z,993.95
2022-12-25T10:06:30.911Z,993.88
2022-12-25T10:07:30.902Z,993.86
2022-12-25T10:08:30.870Z,993.84
2022-12-25T10:09:30.846Z,993.84
2022-12-25T10:10:30.835Z,993.79
2022-12-25T10:11:30.804Z,993.81
2022-12-25T10:12:30.767Z,993.83
2022-12-25T10:13:30.764Z,993.79
2022-12-25T10:14:30.729Z,993.82
2022-12-25T10:15:30.798Z,993.78
2022-12-25T10:16:30.756Z,993.78
2022-12-25T10:17:30.662Z,993.79
2022-12-25T10:18:30.632Z,993.75
2022-12-25T10:19:30.619Z,993.74
2022-12-25T10:20:30.606Z,993.71
2022-12-25T10:21:30.599Z,993.70
2022-12-25T10:22:30.572Z,993.69
2022-12-25T10:23:30.547Z,993.66
2022-12-25T10:24:30.511Z,993.61
2022-12-25T10:25:30.487Z,993.57
2022-12-25T10:26:30.464Z,993.55
2022-12-25T10:27:30.438Z,993.50
2022-12-25T10:28:30.412Z,993.41
2022-12-25T10:29:30.395Z,993.37
2022-12-25T10:30:30.368Z,993.36
2022-12-25T10:31:30.430Z,993.34
2022-12-25T10:32:30.321Z,993.33
2022-12-25T10:33:30.317Z,993.33
2022-12-25T10:34:30.288Z,993.32
2022-12-25T10:35:30.267Z,993.32
2022-12-25T10:36:30.247Z,993.37
2022-12-25T10:37:30.225Z,993.31
2022-12-25T10:38:30.207Z,993.28
2022-12-25T10:39:30.186Z,993.28
2022-12-25T10:40:30.152Z,993.21
2022-12-25T10:41:30.143Z,993.11
2022-12-25T10:42:30.133Z,993.12
2022-12-25T10:43:30.102Z,993.07
2022-12-25T10:44:30.071Z,993.03
2022-12-25T10:45:30.071Z,992.97
2022-12-25T10:46:30.076Z,992.96
2022-12-25T10:47:30.032Z,992.96
2022-12-25T10:48:29.991Z,992.90
2022-12-25T10:49:29.978Z,992.90
2022-12-25T10:50:29.961Z,992.84
2022-12-25T10:51:29.936Z,992.91
2022-12-25T10:52:29.905Z,992.88
2022-12-25T10:53:29.896Z,992.91
2022-12-25T10:54:29.904Z,992.89
2022-12-25T10:55:30.026Z,992.92
2022-12-25T10:56:29.836Z,992.90
2022-12-25T10:57:29.815Z,992.92
2022-12-25T10:58:29.802Z,992.92
2022-12-25T10:59:29.771Z,992.91
2022-12-25T11:00:29.763Z,992.87
2022-12-25T11:01:29.851Z,992.83
2022-12-25T11:02:29.978Z,992.78
2022-12-25T11:03:29.833Z,992.75
2022-12-25T11:04:29.667Z,992.79
2022-12-25T11:05:29.650Z,992.80
2022-12-25T11:06:29.630Z,992.79
2022-12-25T11:07:29.616Z,992.87
2022-12-25T11:08:29.601Z,992.80
2022-12-25T11:09:29.584Z,992.84
2022-12-25T11:10:29.561Z,992.86
2022-12-25T11:11:29.537Z,992.86
2022-12-25T11:12:29.549Z,992.86
2022-12-25T11:13:29.505Z,992.87
2022-12-25T11:14:29.476Z,992.85
2022-12-25T11:15:29.455Z,992.84
2022-12-25T11:16:29.452Z,992.84
2022-12-25T11:17:29.423Z,992.82
2022-12-25T11:18:29.416Z,992.82
2022-12-25T11:19:29.376Z,992.82
2022-12-25T11:20:29.353Z,992.84
2022-12-25T11:21:29.334Z,992.82
2022-12-25T11:22:29.314Z,992.86
2022-12-25T11:23:29.298Z,992.90
2022-12-25T11:24:29.275Z,992.94
2022-12-25T11:25:29.257Z,992.86
2022-12-25T11:26:29.254Z,992.85
2022-12-25T11:27:29.229Z,992.82
2022-12-25T11:28:29.199Z,992.78
2022-12-25T11:29:29.185Z,992.78
2022-12-25T11:30:29.163Z,992.82
2022-12-25T11:31:29.219Z,992.84
2022-12-25T11:32:29.135Z,992.86
2022-12-25T11:33:29.098Z,992.85
2022-12-25T11:34:29.073Z,992.84
2022-12-25T11:35:29.057Z,992.81
2022-12-25T11:36:29.061Z,992.84
2022-12-25T11:37:29.018Z,992.86
2022-12-25T11:38:29.009Z,992.87
2022-12-25T11:39:28.974Z,992.88
2022-12-25T11:40:28.957Z,992.87
2022-12-25T11:41:28.943Z,992.88
2022-12-25T11:42:28.919Z,992.81
2022-12-25T11:43:28.890Z,992.78
2022-12-25T11:44:28.875Z,992.76
2022-12-25T11:45:28.854Z,992.82
2022-12-25T11:46:28.934Z,992.76
2022-12-25T11:47:28.848Z,992.77
2022-12-25T11:48:28.803Z,992.73
2022-12-25T11:49:28.776Z,992.72
2022-12-25T11:50:28.769Z,992.76
2022-12-25T11:51:28.736Z,992.75
2022-12-25T11:52:28.710Z,992.73
2022-12-25T11:53:28.712Z,992.67
2022-12-25T11:54:28.672Z,992.65
2022-12-25T11:55:28.657Z,992.64
2022-12-25T11:56:28.655Z,992.64
2022-12-25T11:57:28.614Z,992.61
2022-12-25T11:58:28.585Z,992.62
2022-12-25T11:59:28.573Z,992.59
2022-12-25T12:00:28.549Z,992.57
2022-12-25T12:01:28.651Z,992.54
2022-12-25T12:02:28.676Z,992.52
2022-12-25T12:03:28.720Z,992.52
2022-12-25T12:04:31.829Z,992.46
2022-12-25T12:05:28.452Z,992.43
2022-12-25T12:06:28.433Z,992.42
2022-12-25T12:07:28.409Z,992.46
2022-12-25T12:08:28.399Z,992.45
2022-12-25T12:09:28.387Z,992.43
2022-12-25T12:10:28.355Z,992.43
2022-12-25T12:11:28.330Z,992.41
2022-12-25T12:12:28.301Z,992.36
2022-12-25T12:13:28.287Z,992.29
2022-12-25T12:14:28.270Z,992.26
2022-12-25T12:15:28.267Z,992.19
2022-12-25T12:16:28.291Z,992.21
2022-12-25T12:17:28.211Z,992.12
2022-12-25T12:18:28.238Z,992.13
2022-12-25T12:19:28.163Z,992.09
2022-12-25T12:20:28.174Z,992.04
2022-12-25T12:21:28.174Z,991.98
2022-12-25T12:22:28.141Z,991.92
2022-12-25T12:23:28.097Z,991.98
2022-12-25T12:24:28.065Z,991.97
2022-12-25T12:25:28.043Z,991.90
2022-12-25T12:26:28.023Z,991.84
2022-12-25T12:27:28.038Z,991.83
2022-12-25T12:28:27.978Z,991.78